Time;durP1;ratioP1;P1;durP2;ratioP2;P2;SDS_P1;SDS_P2;PMS_P1;PMS_P2;Temp;Humidity;BMP_temperature;BMP_pressure;BME280_temperature;BME280_humidity;BME280_pressure;Samples;Min_cycle;Max_cycle;Signal;HPM_P1;HPM_P2
2022/11/06 00:00:47;;;;;;;6.53;3.93;;;9.50;99.90;;;;;;5081981;28;20205;-46
2022/11/06 00:03:14;;;;;;;4.70;3.90;;;9.50;99.90;;;;;;5084110;28;20693;-47
2022/11/06 00:08:29;;;;;;;7.20;3.73;;;9.50;99.90;;;;;;5066892;28;20327;-47
2022/11/06 00:10:56;;;;;;;6.43;3.83;;;9.60;99.90;;;;;;5081236;28;20217;-47
2022/11/06 00:13:24;;;;;;;5.07;3.40;;;9.60;99.90;;;;;;5074051;28;20229;-48
2022/11/06 00:15:51;;;;;;;4.33;3.63;;;9.60;99.90;;;;;;5084136;28;20273;-47
2022/11/06 00:18:18;;;;;;;6.13;3.87;;;9.60;99.90;;;;;;5078529;28;20209;-50
2022/11/06 00:20:45;;;;;;;4.97;3.53;;;9.60;99.90;;;;;;5075110;28;20241;-53
2022/11/06 00:23:12;;;;;;;6.20;3.40;;;9.60;99.90;;;;;;5083532;28;20202;-48
2022/11/06 00:25:41;;;;;;;5.57;3.47;;;9.70;99.90;;;;;;5060510;28;20243;-46
2022/11/06 00:28:08;;;;;;;5.80;3.90;;;9.70;99.90;;;;;;5076655;28;20276;-46
2022/11/06 00:30:36;;;;;;;6.60;3.30;;;9.70;99.90;;;;;;5081217;28;20198;-50
2022/11/06 00:33:04;;;;;;;6.33;3.23;;;9.70;99.90;;;;;;5083806;28;20202;-48
2022/11/06 00:35:31;;;;;;;4.30;3.20;;;9.70;99.90;;;;;;5060198;28;20210;-50
2022/11/06 00:37:58;;;;;;;5.03;3.20;;;9.70;99.90;;;;;;5071215;28;20218;-46
2022/11/06 00:40:25;;;;;;;4.00;2.93;;;9.80;99.90;;;;;;5062070;28;20611;-48
2022/11/06 00:42:58;;;;;;;5.03;2.80;;;9.70;99.90;;;;;;5076743;28;20186;-47
2022/11/06 00:45:25;;;;;;;3.73;2.70;;;9.70;99.90;;;;;;5074475;28;20954;-52
2022/11/06 00:47:53;;;;;;;4.80;2.90;;;9.80;99.90;;;;;;5083311;28;20192;-48
2022/11/06 00:50:21;;;;;;;7.10;3.20;;;9.80;99.90;;;;;;5076877;28;20194;-48
2022/11/06 00:52:48;;;;;;;7.00;3.40;;;9.80;99.90;;;;;;5075297;28;20218;-49
2022/11/06 00:55:15;;;;;;;3.80;3.20;;;9.70;99.90;;;;;;5065907;28;20221;-45
2022/11/06 00:57:42;;;;;;;5.30;2.70;;;9.70;99.90;;;;;;5073590;28;20213;-46
2022/11/06 01:00:10;;;;;;;3.27;2.97;;;9.70;99.90;;;;;;5076835;28;20209;-47
2022/11/06 01:02:37;;;;;;;6.63;3.30;;;9.70;99.90;;;;;;5080832;28;20221;-46
2022/11/06 01:05:07;;;;;;;3.83;3.40;;;9.70;99.90;;;;;;5073335;28;20218;-48
2022/11/06 01:07:33;;;;;;;7.00;3.00;;;9.70;99.90;;;;;;5071296;28;20202;-47
2022/11/06 01:10:00;;;;;;;5.50;3.40;;;9.70;99.90;;;;;;5078100;28;20547;-46
2022/11/06 01:12:27;;;;;;;3.73;2.87;;;9.70;99.90;;;;;;5059604;28;20202;-47
2022/11/06 01:14:54;;;;;;;4.40;2.63;;;9.70;99.90;;;;;;5075018;28;20237;-48
2022/11/06 01:17:21;;;;;;;7.93;3.13;;;9.70;99.90;;;;;;5080669;28;20291;-47
2022/11/06 01:19:48;;;;;;;4.40;3.53;;;9.70;99.90;;;;;;5083272;28;20193;-47
2022/11/06 01:22:17;;;;;;;6.50;3.00;;;9.70;99.90;;;;;;5075515;28;20201;-51
2022/11/06 01:24:44;;;;;;;5.93;2.83;;;9.70;99.90;;;;;;5076259;28;20233;-46
2022/11/06 01:27:33;;;;;;;5.43;2.83;;;9.70;99.90;;;;;;5065028;28;21068;-48
2022/11/06 01:30:00;;;;;;;4.53;2.73;;;9.70;99.90;;;;;;5069328;28;20206;-50
2022/11/06 01:32:27;;;;;;;3.37;3.07;;;9.70;99.90;;;;;;5079658;28;20273;-51
2022/11/06 01:34:53;;;;;;;4.17;2.53;;;9.70;99.90;;;;;;5082509;28;20314;-46
2022/11/06 01:37:22;;;;;;;5.07;2.97;;;9.70;99.90;;;;;;5074770;28;20224;-46
2022/11/06 01:39:50;;;;;;;4.53;2.53;;;9.70;99.90;;;;;;5077889;28;20198;-46
2022/11/06 01:42:19;;;;;;;4.73;2.70;;;9.70;99.90;;;;;;5068621;28;20234;-52
2022/11/06 01:45:29;;;;;;;6.53;3.03;;;9.70;99.90;;;;;;5074847;28;20233;-47
2022/11/06 01:47:56;;;;;;;2.90;2.60;;;9.70;99.90;;;;;;5079678;28;20198;-47
2022/11/06 01:50:22;;;;;;;3.43;2.40;;;9.70;99.90;;;;;;5080139;28;20194;-46
2022/11/06 01:52:52;;;;;;;2.80;2.50;;;9.70;99.90;;;;;;5077979;28;20198;-45
2022/11/06 01:55:23;;;;;;;3.90;2.60;;;9.70;99.90;;;;;;5074339;28;20236;-47
2022/11/06 01:57:51;;;;;;;2.97;2.67;;;9.70;99.90;;;;;;5084185;28;20210;-47
2022/11/06 02:00:18;;;;;;;5.33;3.10;;;9.70;99.90;;;;;;5058996;28;20206;-47
2022/11/06 02:02:46;;;;;;;2.93;2.60;;;9.70;99.90;;;;;;5083140;28;20281;-48
2022/11/06 02:05:13;;;;;;;4.73;2.77;;;9.70;99.90;;;;;;5080411;28;20683;-50
2022/11/06 02:07:41;;;;;;;3.57;2.70;;;9.70;99.90;;;;;;5077186;28;20213;-49
2022/11/06 02:10:10;;;;;;;5.10;2.60;;;9.70;99.90;;;;;;5081404;28;20213;-48
2022/11/06 02:12:49;;;;;;;3.70;2.77;;;9.70;99.90;;;;;;5079068;28;20206;-46
2022/11/06 02:15:23;;;;;;;4.27;2.47;;;9.70;99.90;;;;;;5058189;28;20241;-49
2022/11/06 02:18:00;;;;;;;5.23;2.87;;;9.70;99.90;;;;;;5082660;28;20210;-49
2022/11/06 02:20:33;;;;;;;2.70;2.40;;;9.70;99.90;;;;;;5080067;28;20196;-49
2022/11/06 02:23:13;;;;;;;6.37;3.30;;;9.70;99.90;;;;;;5083183;28;20193;-46
2022/11/06 02:25:49;;;;;;;3.50;2.53;;;9.70;99.90;;;;;;5080446;28;20206;-46
2022/11/06 02:28:24;;;;;;;2.67;2.37;;;9.70;99.90;;;;;;5075393;28;20204;-48
2022/11/06 02:30:54;;;;;;;3.70;2.70;;;9.80;99.90;;;;;;5068253;28;20205;-46
2022/11/06 02:33:28;;;;;;;5.30;2.90;;;9.80;99.90;;;;;;5069654;28;20228;-51
2022/11/06 02:36:00;;;;;;;3.93;2.93;;;9.80;99.90;;;;;;5083632;28;20223;-46
2022/11/06 02:38:34;;;;;;;5.20;2.87;;;9.80;99.90;;;;;;5074700;28;21993;-47
2022/11/06 02:41:04;;;;;;;4.17;2.77;;;9.80;99.90;;;;;;5083209;28;20198;-45
2022/11/06 02:43:38;;;;;;;3.30;2.50;;;9.80;99.90;;;;;;5074588;28;20256;-46
2022/11/06 02:46:09;;;;;;;3.40;3.10;;;9.80;99.90;;;;;;5066571;28;20208;-47
2022/11/06 02:48:40;;;;;;;4.70;3.03;;;9.70;99.90;;;;;;5077773;28;20198;-47
2022/11/06 02:51:10;;;;;;;4.43;2.73;;;9.80;99.90;;;;;;5082178;28;20579;-51
2022/11/06 02:53:39;;;;;;;6.20;3.27;;;9.80;99.90;;;;;;5071206;28;20218;-45
2022/11/06 02:56:11;;;;;;;2.87;2.60;;;9.80;99.90;;;;;;5073972;28;20965;-47
2022/11/06 02:58:43;;;;;;;4.23;2.70;;;9.80;99.90;;;;;;5070426;28;20217;-46
2022/11/06 03:01:15;;;;;;;4.27;2.93;;;9.80;99.90;;;;;;5064725;28;20248;-47
2022/11/06 03:03:47;;;;;;;7.03;3.57;;;9.80;99.90;;;;;;5075928;28;20225;-46
2022/11/06 03:06:20;;;;;;;6.37;3.07;;;9.80;99.90;;;;;;5080110;28;20190;-48
2022/11/06 03:08:53;;;;;;;2.87;2.67;;;9.80;99.90;;;;;;5076571;28;20197;-50
2022/11/06 03:11:23;;;;;;;5.37;3.07;;;9.80;99.90;;;;;;5076335;28;20193;-46
2022/11/06 03:13:57;;;;;;;4.30;2.90;;;9.80;99.90;;;;;;5068483;28;20224;-49
2022/11/06 03:16:33;;;;;;;12.13;3.73;;;9.80;99.90;;;;;;5066917;28;20250;-46
2022/11/06 03:19:07;;;;;;;4.87;2.93;;;9.80;99.90;;;;;;5073515;28;20233;-47
2022/11/06 03:21:44;;;;;;;3.10;2.70;;;9.80;99.90;;;;;;5083328;28;20280;-50
2022/11/06 03:24:16;;;;;;;3.90;2.90;;;9.80;99.90;;;;;;5078131;28;20275;-48
2022/11/06 03:26:47;;;;;;;5.67;2.80;;;9.80;99.90;;;;;;5073570;28;20206;-47
2022/11/06 03:29:21;;;;;;;3.40;2.67;;;9.80;99.90;;;;;;5069216;28;20839;-50
2022/11/06 03:31:53;;;;;;;5.93;3.10;;;9.80;99.90;;;;;;5077303;28;20669;-49
2022/11/06 03:34:28;;;;;;;4.00;2.93;;;9.80;99.90;;;;;;5068171;28;20245;-46
2022/11/06 03:37:03;;;;;;;3.53;2.73;;;9.80;99.90;;;;;;5080466;28;20201;-48
2022/11/06 03:39:34;;;;;;;5.20;3.27;;;9.80;99.90;;;;;;5083021;28;20698;-48
2022/11/06 03:42:06;;;;;;;3.43;2.63;;;9.80;99.90;;;;;;5074656;28;20765;-47
2022/11/06 03:44:38;;;;;;;4.90;2.53;;;9.80;99.90;;;;;;5080161;28;20598;-48
2022/11/06 03:47:11;;;;;;;2.93;2.63;;;9.80;99.90;;;;;;5067146;28;20209;-50
2022/11/06 03:49:43;;;;;;;4.73;2.73;;;9.80;99.90;;;;;;5075419;28;20205;-48
2022/11/06 03:52:16;;;;;;;4.27;2.70;;;9.90;99.90;;;;;;5080913;28;20194;-51
2022/11/06 03:54:47;;;;;;;4.67;2.90;;;9.90;99.90;;;;;;5084478;28;20222;-51
2022/11/06 03:57:18;;;;;;;3.20;2.87;;;9.90;99.90;;;;;;5078636;28;20194;-45
2022/11/06 03:59:50;;;;;;;4.13;3.07;;;9.80;99.90;;;;;;5080576;28;20213;-47
2022/11/06 04:02:19;;;;;;;5.00;2.53;;;9.90;99.90;;;;;;5083966;28;20194;-49
2022/11/06 04:04:49;;;;;;;6.03;3.13;;;9.80;99.90;;;;;;5068676;28;20221;-48
2022/11/06 04:07:20;;;;;;;3.27;2.73;;;9.90;99.90;;;;;;5083728;28;20196;-48
2022/11/06 04:15:25;;;;;;;3.27;2.73;;;9.80;99.90;;;;;;5077241;28;20226;-46
2022/11/06 04:18:17;;;;;;;4.30;2.97;;;9.80;99.90;;;;;;5066850;28;20228;-46
2022/11/06 04:26:34;;;;;;;5.07;3.00;;;9.90;99.90;;;;;;5081979;28;20535;-48
2022/11/06 04:26:41;;;;;;;6.70;2.70;;;9.80;99.90;;;;;;5085841;28;20276;-49
2022/11/06 04:29:16;;;;;;;3.30;2.80;;;9.80;99.90;;;;;;5076677;28;20400;-46
2022/11/06 04:31:54;;;;;;;5.13;2.73;;;9.80;99.90;;;;;;5080420;28;20217;-48
2022/11/06 04:34:28;;;;;;;4.93;2.90;;;9.80;99.90;;;;;;5066394;28;20213;-46
2022/11/06 04:37:03;;;;;;;4.73;2.60;;;9.80;99.90;;;;;;5083231;28;20190;-49
2022/11/06 04:39:39;;;;;;;4.63;2.73;;;9.80;99.90;;;;;;5085656;28;20221;-49
2022/11/06 04:42:11;;;;;;;3.00;2.67;;;9.80;99.90;;;;;;5081275;28;20198;-48
2022/11/06 04:44:42;;;;;;;4.63;2.83;;;9.80;99.90;;;;;;5084272;28;20706;-46
2022/11/06 04:47:15;;;;;;;7.27;2.60;;;9.80;99.90;;;;;;5074346;28;20251;-46
2022/11/06 04:49:43;;;;;;;4.33;2.87;;;9.80;99.90;;;;;;5069522;28;20209;-47
2022/11/06 04:52:16;;;;;;;5.03;2.40;;;9.80;99.90;;;;;;5080571;28;20336;-46
2022/11/06 04:54:45;;;;;;;3.63;2.60;;;9.80;99.90;;;;;;5084160;28;20221;-48
2022/11/06 04:57:13;;;;;;;4.53;2.70;;;9.80;99.90;;;;;;5082019;28;20235;-47
2022/11/06 04:59:39;;;;;;;5.20;3.20;;;9.80;99.90;;;;;;5085177;28;20225;-48
2022/11/06 05:02:06;;;;;;;5.47;2.63;;;9.80;99.90;;;;;;5075955;28;20196;-46
2022/11/06 05:04:34;;;;;;;6.57;3.37;;;9.80;99.90;;;;;;5063303;28;20220;-48
2022/11/06 05:07:01;;;;;;;4.57;2.70;;;9.80;99.90;;;;;;5080704;28;20194;-49
2022/11/06 05:09:28;;;;;;;4.80;3.03;;;9.80;99.90;;;;;;5085288;28;20221;-49
2022/11/06 05:11:55;;;;;;;4.30;2.53;;;9.80;99.90;;;;;;5082314;28;20659;-48
2022/11/06 05:14:23;;;;;;;4.10;2.47;;;9.80;99.90;;;;;;5082743;28;20205;-46
2022/11/06 05:16:49;;;;;;;3.87;2.60;;;9.80;99.90;;;;;;5078537;28;20609;-47
2022/11/06 05:19:16;;;;;;;2.73;2.30;;;9.70;99.90;;;;;;5066633;28;20226;-46
2022/11/06 05:24:29;;;;;;;6.27;2.53;;;9.70;99.90;;;;;;5082990;28;20218;-47
2022/11/06 05:26:56;;;;;;;3.17;2.87;;;9.70;99.90;;;;;;5082201;28;20620;-48
2022/11/06 05:29:22;;;;;;;4.00;2.47;;;9.70;99.90;;;;;;5083518;28;20194;-49
2022/11/06 05:31:49;;;;;;;4.63;2.47;;;9.70;99.90;;;;;;5082966;28;20198;-48
2022/11/06 05:34:16;;;;;;;7.13;2.60;;;9.70;99.90;;;;;;5076582;28;20222;-49
2022/11/06 05:36:45;;;;;;;6.30;2.80;;;9.70;99.90;;;;;;5068705;28;20225;-49
2022/11/06 05:39:11;;;;;;;5.67;2.47;;;9.70;99.90;;;;;;5080894;28;20202;-45
2022/11/06 05:41:38;;;;;;;2.73;2.50;;;9.70;99.90;;;;;;5084620;28;20206;-51
2022/11/06 05:44:05;;;;;;;6.33;2.50;;;9.70;99.90;;;;;;5079298;28;20230;-47
2022/11/06 05:46:32;;;;;;;3.90;2.33;;;9.70;99.90;;;;;;5084108;28;20284;-46
2022/11/06 05:48:59;;;;;;;4.67;2.53;;;9.70;99.90;;;;;;5074757;28;20209;-51
2022/11/06 05:51:26;;;;;;;2.87;2.30;;;9.70;99.90;;;;;;5068330;28;20202;-46
2022/11/06 05:53:55;;;;;;;5.07;2.60;;;9.70;99.90;;;;;;5080889;28;20216;-47
2022/11/06 05:56:21;;;;;;;4.57;3.20;;;9.70;99.90;;;;;;5082751;28;20186;-46
2022/11/06 05:58:49;;;;;;;2.30;2.17;;;9.60;99.90;;;;;;5082763;28;20371;-47
2022/11/06 06:01:15;;;;;;;3.93;2.60;;;9.60;99.90;;;;;;5081497;28;20193;-46
2022/11/06 06:03:42;;;;;;;4.60;2.77;;;9.60;99.90;;;;;;5082570;28;20218;-46
2022/11/06 06:06:09;;;;;;;5.10;2.70;;;9.60;99.90;;;;;;5059276;28;20328;-46
2022/11/06 06:08:36;;;;;;;5.13;3.03;;;9.50;99.90;;;;;;5083528;28;20244;-46
2022/11/06 06:11:08;;;;;;;3.67;2.63;;;9.40;99.90;;;;;;5079728;28;20213;-51
2022/11/06 06:13:36;;;;;;;3.53;2.47;;;9.40;99.90;;;;;;5082918;28;20251;-46
2022/11/06 06:16:02;;;;;;;3.33;2.73;;;9.40;99.90;;;;;;5070107;28;20272;-47
2022/11/06 06:18:30;;;;;;;2.97;2.70;;;9.30;99.90;;;;;;5081036;28;20193;-46
2022/11/06 06:20:58;;;;;;;4.10;2.70;;;9.30;99.90;;;;;;5054408;28;20229;-48
2022/11/06 06:23:25;;;;;;;9.27;3.00;;;9.20;99.90;;;;;;5077457;28;20233;-46
2022/11/06 06:25:52;;;;;;;6.07;3.37;;;9.20;99.90;;;;;;5079222;28;20201;-49
2022/11/06 06:28:20;;;;;;;2.63;2.43;;;9.10;99.90;;;;;;5079646;28;20196;-48
2022/11/06 06:30:46;;;;;;;3.80;2.90;;;9.10;99.90;;;;;;5080780;28;20209;-52
2022/11/06 06:33:13;;;;;;;5.13;2.73;;;9.00;99.90;;;;;;5076268;28;20202;-48
2022/11/06 06:35:40;;;;;;;6.53;2.90;;;9.00;99.90;;;;;;5069568;28;20209;-46
2022/11/06 06:38:07;;;;;;;5.83;3.33;;;9.00;99.90;;;;;;5061384;28;20202;-46
2022/11/06 06:40:34;;;;;;;6.93;2.60;;;9.00;99.90;;;;;;5081171;28;20221;-47
2022/11/06 06:43:01;;;;;;;3.00;2.70;;;8.90;99.90;;;;;;5074316;28;20202;-50
2022/11/06 06:45:29;;;;;;;3.70;2.63;;;8.90;99.90;;;;;;5076974;28;20193;-47
2022/11/06 06:48:01;;;;;;;4.93;2.80;;;8.90;99.90;;;;;;5073168;28;20670;-47
2022/11/06 06:50:28;;;;;;;3.90;3.50;;;8.90;99.90;;;;;;5072099;28;20205;-46
2022/11/06 06:52:55;;;;;;;3.43;3.13;;;8.90;99.90;;;;;;5064252;28;20210;-47
2022/11/06 06:55:22;;;;;;;4.77;3.00;;;9.00;99.90;;;;;;5072238;28;20729;-46
2022/11/06 06:57:56;;;;;;;3.57;2.60;;;9.00;99.90;;;;;;5066499;28;20213;-48
2022/11/06 07:00:23;;;;;;;4.13;2.30;;;9.00;99.90;;;;;;5071181;28;20260;-46
2022/11/06 07:02:51;;;;;;;6.27;2.90;;;9.00;99.90;;;;;;5062762;28;20255;-46
2022/11/06 07:05:19;;;;;;;5.03;3.00;;;9.00;99.90;;;;;;5071958;28;20236;-47
2022/11/06 07:07:46;;;;;;;3.10;2.50;;;9.00;99.90;;;;;;5056596;28;20919;-46
2022/11/06 07:10:13;;;;;;;5.67;3.10;;;9.00;99.90;;;;;;5069852;28;20205;-48
2022/11/06 07:12:39;;;;;;;5.53;2.57;;;9.00;99.90;;;;;;5071532;28;20194;-50
2022/11/06 07:15:08;;;;;;;5.87;2.97;;;9.10;99.90;;;;;;5078798;28;20241;-49
2022/11/06 07:17:34;;;;;;;5.20;2.93;;;9.10;99.90;;;;;;5075638;28;20663;-48
2022/11/06 07:20:03;;;;;;;5.57;2.90;;;9.20;99.90;;;;;;5074113;28;20213;-47
2022/11/06 07:22:31;;;;;;;5.47;2.53;;;9.20;99.90;;;;;;5070814;28;20629;-47
2022/11/06 07:24:58;;;;;;;4.57;2.60;;;9.20;99.90;;;;;;5069017;28;20229;-48
2022/11/06 07:27:25;;;;;;;5.80;3.87;;;9.20;99.90;;;;;;5083339;28;20210;-47
2022/11/06 07:29:52;;;;;;;5.10;2.63;;;9.20;99.90;;;;;;5082270;28;20201;-46
2022/11/06 07:32:18;;;;;;;6.13;2.93;;;9.20;99.90;;;;;;5084027;28;20209;-47
2022/11/06 07:34:45;;;;;;;5.93;2.63;;;9.20;99.90;;;;;;5073427;28;20222;-46
2022/11/06 07:37:13;;;;;;;5.10;2.20;;;9.20;99.90;;;;;;5084548;28;20202;-46
2022/11/06 07:39:40;;;;;;;4.93;2.60;;;9.20;99.90;;;;;;5064900;28;20808;-46
2022/11/06 07:42:07;;;;;;;3.80;2.77;;;9.30;99.90;;;;;;5077743;28;20202;-47
2022/11/06 07:44:36;;;;;;;3.63;2.13;;;9.30;99.90;;;;;;5077664;28;20282;-48
2022/11/06 07:47:03;;;;;;;4.03;2.47;;;9.30;99.90;;;;;;5072928;28;20206;-48
2022/11/06 07:49:30;;;;;;;2.90;2.37;;;9.30;99.90;;;;;;5075468;28;20202;-49
2022/11/06 07:51:57;;;;;;;3.23;2.60;;;9.40;99.90;;;;;;5074952;28;21273;-50
2022/11/06 07:54:25;;;;;;;6.37;2.73;;;9.40;99.90;;;;;;5072213;28;20305;-49
2022/11/06 07:56:52;;;;;;;6.03;2.67;;;9.40;99.90;;;;;;5063607;28;20202;-46
2022/11/06 07:59:19;;;;;;;6.97;2.00;;;9.40;99.90;;;;;;5078726;28;20198;-46
2022/11/06 08:01:46;;;;;;;3.17;1.93;;;9.50;99.90;;;;;;5069959;28;20197;-49
2022/11/06 08:04:13;;;;;;;3.67;2.20;;;9.50;99.90;;;;;;5067095;28;20209;-49
2022/11/06 08:06:40;;;;;;;3.93;2.40;;;9.60;99.90;;;;;;5057655;28;20710;-47
2022/11/06 08:09:07;;;;;;;5.23;2.00;;;9.60;99.90;;;;;;5068601;28;20278;-46
2022/11/06 08:11:36;;;;;;;4.13;2.20;;;9.60;99.90;;;;;;5059819;28;20225;-49
2022/11/06 08:14:03;;;;;;;3.00;2.13;;;9.50;99.90;;;;;;5072946;28;20572;-49
2022/11/06 08:16:30;;;;;;;5.30;2.40;;;9.50;99.90;;;;;;5063075;28;20298;-47
2022/11/06 08:18:57;;;;;;;4.07;2.53;;;9.50;99.90;;;;;;5083201;28;20230;-48
2022/11/06 08:21:24;;;;;;;5.07;2.60;;;9.50;99.90;;;;;;5067898;28;20221;-51
2022/11/06 08:23:51;;;;;;;2.93;2.20;;;9.50;99.90;;;;;;5082015;28;20741;-46
2022/11/06 08:26:17;;;;;;;2.67;1.77;;;9.50;99.90;;;;;;5069679;28;20206;-46
2022/11/06 08:28:46;;;;;;;3.00;2.00;;;9.60;99.90;;;;;;5075331;28;20247;-42
2022/11/06 08:31:13;;;;;;;3.30;1.97;;;9.60;99.90;;;;;;5072860;28;20251;-43
2022/11/06 08:33:40;;;;;;;3.93;2.23;;;9.60;99.90;;;;;;5071892;28;20298;-45
2022/11/06 08:36:09;;;;;;;5.10;1.87;;;9.70;99.90;;;;;;5078700;28;20202;-46
2022/11/06 08:38:36;;;;;;;3.53;1.70;;;9.70;99.90;;;;;;5070659;28;20925;-47
2022/11/06 08:41:07;;;;;;;2.80;2.10;;;9.70;99.90;;;;;;5076291;28;20220;-45
2022/11/06 08:43:38;;;;;;;3.70;2.00;;;9.80;99.90;;;;;;5069410;28;20217;-48
2022/11/06 08:46:07;;;;;;;2.97;2.00;;;9.80;99.90;;;;;;5084421;28;20201;-49
2022/11/06 08:48:52;;;;;;;7.03;1.97;;;9.80;99.90;;;;;;5075340;28;20221;-49
2022/11/06 08:51:20;;;;;;;3.90;1.90;;;9.80;99.90;;;;;;5074652;28;20212;-49
2022/11/06 08:53:47;;;;;;;3.03;1.90;;;9.80;99.90;;;;;;5071432;28;20226;-48
2022/11/06 08:56:15;;;;;;;2.90;1.90;;;9.80;99.90;;;;;;5075878;28;20608;-45
2022/11/06 08:58:41;;;;;;;5.53;1.97;;;9.90;99.90;;;;;;5072561;28;20213;-45
2022/11/06 09:01:10;;;;;;;2.40;2.00;;;9.90;99.90;;;;;;5067500;28;20218;-46
2022/11/06 09:03:37;;;;;;;5.87;2.50;;;10.00;99.90;;;;;;5072567;28;20297;-49
2022/11/06 09:06:05;;;;;;;3.40;2.10;;;10.00;99.90;;;;;;5072637;28;20210;-43
2022/11/06 09:08:32;;;;;;;3.93;1.87;;;10.10;99.90;;;;;;5060550;28;20206;-47
2022/11/06 09:10:59;;;;;;;4.20;1.90;;;10.10;99.90;;;;;;5068453;28;20196;-48
2022/11/06 09:13:26;;;;;;;2.87;2.20;;;10.20;99.90;;;;;;5059534;28;20224;-43
2022/11/06 09:15:53;;;;;;;5.00;1.77;;;10.30;99.90;;;;;;5078893;28;20198;-44
2022/11/06 09:18:22;;;;;;;2.97;1.73;;;10.30;99.90;;;;;;5077101;28;20212;-43
2022/11/06 09:20:48;;;;;;;3.13;1.77;;;10.40;99.90;;;;;;5082585;28;20213;-45
2022/11/06 09:23:15;;;;;;;4.70;1.80;;;10.40;99.90;;;;;;5068872;28;20198;-43
2022/11/06 09:25:42;;;;;;;3.13;1.70;;;10.50;99.90;;;;;;5078414;28;20277;-47
2022/11/06 09:28:09;;;;;;;3.70;2.17;;;10.50;99.90;;;;;;5062810;28;20224;-43
2022/11/06 09:30:36;;;;;;;2.47;1.80;;;10.50;99.90;;;;;;5074203;28;20190;-47
2022/11/06 09:33:03;;;;;;;3.90;1.70;;;10.50;99.90;;;;;;5064668;28;20225;-47
2022/11/06 09:35:34;;;;;;;2.30;1.43;;;10.60;99.90;;;;;;5077952;28;20214;-46
2022/11/06 09:38:02;;;;;;;2.70;1.67;;;10.60;99.90;;;;;;5079476;28;20233;-46
2022/11/06 09:40:32;;;;;;;2.43;1.77;;;10.60;99.90;;;;;;5066599;28;21092;-44
2022/11/06 09:43:14;;;;;;;3.60;1.93;;;10.60;99.90;;;;;;5060953;28;20578;-46
2022/11/06 09:45:41;;;;;;;3.93;2.00;;;10.60;99.90;;;;;;5076661;28;20289;-44
2022/11/06 09:48:17;;;;;;;2.47;1.87;;;10.70;99.90;;;;;;5070513;28;20209;-44
2022/11/06 09:50:51;;;;;;;3.70;1.93;;;10.70;99.90;;;;;;5072227;28;21214;-48
2022/11/06 09:53:27;;;;;;;1.47;1.37;;;10.70;99.90;;;;;;5067981;28;21207;-45
2022/11/06 09:55:55;;;;;;;2.10;1.53;;;10.70;99.90;;;;;;5072011;28;20666;-45
2022/11/06 09:58:27;;;;;;;7.10;2.50;;;10.70;99.90;;;;;;5061994;28;20202;-44
2022/11/06 10:00:55;;;;;;;4.77;1.47;;;10.80;99.90;;;;;;5063669;28;20215;-44
2022/11/06 10:03:26;;;;;;;3.67;1.70;;;10.80;99.90;;;;;;5066519;28;20197;-43
2022/11/06 10:05:54;;;;;;;2.63;1.60;;;10.90;99.90;;;;;;5069107;28;20267;-46
2022/11/06 10:08:23;;;;;;;2.27;1.47;;;10.90;99.90;;;;;;5071998;28;20189;-45
2022/11/06 10:11:01;;;;;;;2.30;1.60;;;11.00;99.90;;;;;;5068793;28;20279;-44
2022/11/06 10:13:51;;;;;;;4.60;1.60;;;11.10;99.90;;;;;;5057285;28;20301;-45
2022/11/06 10:16:30;;;;;;;4.13;1.50;;;11.10;99.90;;;;;;5074739;28;20321;-47
2022/11/06 10:19:09;;;;;;;3.30;1.53;;;11.20;99.90;;;;;;5070371;28;20198;-44
2022/11/06 10:21:45;;;;;;;4.07;1.47;;;11.20;99.90;;;;;;5072573;28;20218;-44
2022/11/06 10:24:21;;;;;;;4.43;1.83;;;11.30;99.90;;;;;;5074351;28;20208;-44
2022/11/06 10:26:52;;;;;;;3.17;1.73;;;11.30;99.90;;;;;;5070973;28;20216;-44
2022/11/06 10:29:44;;;;;;;2.57;1.20;;;11.40;99.90;;;;;;5067024;28;20202;-46
2022/11/06 10:32:44;;;;;;;3.30;1.50;;;11.40;99.90;;;;;;5077580;28;20761;-45
2022/11/06 10:35:19;;;;;;;3.07;1.30;;;11.50;99.90;;;;;;5059464;28;20744;-44
2022/11/06 10:37:53;;;;;;;0.97;0.90;;;11.60;99.90;;;;;;5073125;28;20217;-48
2022/11/06 10:40:24;;;;;;;2.07;1.30;;;11.70;99.90;;;;;;5071542;28;20220;-45
2022/11/06 10:43:04;;;;;;;4.33;1.50;;;11.80;99.90;;;;;;5061897;28;20490;-44
2022/11/06 10:45:34;;;;;;;4.10;1.37;;;11.80;99.90;;;;;;5059300;28;20255;-46
2022/11/06 10:48:13;;;;;;;3.57;1.70;;;11.80;99.90;;;;;;5074792;28;20198;-46
2022/11/06 10:50:48;;;;;;;2.03;1.20;;;11.90;99.90;;;;;;5060771;28;20182;-46
2022/11/06 10:53:24;;;;;;;3.00;1.20;;;12.00;99.90;;;;;;5081842;28;20692;-48
2022/11/06 10:56:19;;;;;;;1.20;1.10;;;12.00;99.90;;;;;;5078930;28;20552;-46
2022/11/06 10:58:46;;;;;;;3.30;1.30;;;12.10;99.90;;;;;;5071866;28;20317;-48
2022/11/06 11:01:14;;;;;;;2.60;1.37;;;12.10;99.90;;;;;;5073737;28;20244;-45
2022/11/06 11:03:43;;;;;;;3.20;1.60;;;12.20;99.90;;;;;;5073831;28;20222;-50
2022/11/06 11:06:10;;;;;;;2.97;1.50;;;12.30;99.90;;;;;;5076629;28;20202;-44
2022/11/06 11:08:42;;;;;;;3.53;1.70;;;12.30;99.90;;;;;;5071473;28;20654;-44
2022/11/06 11:11:27;;;;;;;1.83;1.40;;;12.30;99.90;;;;;;5083356;28;20265;-45
2022/11/06 11:14:14;;;;;;;3.53;1.50;;;12.30;99.90;;;;;;5073225;28;20213;-45
2022/11/06 11:16:44;;;;;;;4.03;1.47;;;12.30;99.90;;;;;;5066616;28;20288;-46
2022/11/06 11:19:22;;;;;;;3.70;1.40;;;12.40;99.90;;;;;;5080115;28;20201;-48
2022/11/06 11:21:54;;;;;;;2.47;1.30;;;12.50;99.90;;;;;;5071966;28;20299;-44
2022/11/06 11:24:23;;;;;;;2.43;1.30;;;12.60;99.90;;;;;;5080631;28;20206;-45
2022/11/06 11:26:52;;;;;;;2.23;1.50;;;12.80;99.90;;;;;;5077855;28;20209;-44
2022/11/06 11:29:24;;;;;;;4.27;1.17;;;12.90;99.90;;;;;;5073628;28;20212;-48
2022/11/06 11:31:53;;;;;;;1.37;1.10;;;13.10;99.90;;;;;;5069783;28;20202;-44
2022/11/06 11:34:23;;;;;;;4.30;1.53;;;13.30;99.90;;;;;;5078542;28;20218;-45
2022/11/06 11:36:53;;;;;;;2.83;1.40;;;13.40;99.90;;;;;;5078574;28;20197;-45
2022/11/06 11:39:24;;;;;;;2.77;1.50;;;13.40;99.90;;;;;;5081364;28;20198;-48
2022/11/06 11:41:51;;;;;;;1.37;1.10;;;13.40;99.90;;;;;;5079931;28;20334;-45
2022/11/06 11:44:19;;;;;;;4.40;1.33;;;13.40;99.90;;;;;;5075880;28;21016;-47
2022/11/06 11:46:48;;;;;;;2.87;1.07;;;13.30;99.90;;;;;;5072388;28;20206;-45
2022/11/06 11:49:33;;;;;;;2.87;1.20;;;13.30;99.90;;;;;;5079364;28;20319;-44
2022/11/06 11:52:02;;;;;;;1.80;1.40;;;13.40;99.90;;;;;;5078457;28;20325;-44
2022/11/06 11:54:33;;;;;;;3.13;1.20;;;13.50;99.90;;;;;;5079189;28;20294;-46
2022/11/06 11:57:02;;;;;;;3.17;1.40;;;13.50;99.90;;;;;;5076506;28;20194;-44
2022/11/06 11:59:32;;;;;;;3.17;1.23;;;13.50;99.90;;;;;;5070588;28;20583;-45
2022/11/06 12:02:03;;;;;;;3.20;1.30;;;13.50;99.90;;;;;;5067163;28;20225;-46
2022/11/06 12:04:34;;;;;;;1.70;1.00;;;13.60;99.90;;;;;;5068784;28;20213;-44
2022/11/06 12:07:04;;;;;;;1.50;1.23;;;13.60;99.90;;;;;;5077444;28;20210;-44
2022/11/06 12:09:42;;;;;;;3.13;1.30;;;13.60;99.90;;;;;;5074331;28;20310;-46
2022/11/06 12:12:21;;;;;;;1.00;0.90;;;13.60;99.90;;;;;;5083666;28;20229;-46
2022/11/06 12:15:02;;;;;;;2.73;1.00;;;13.60;99.90;;;;;;5078654;28;20326;-45
2022/11/06 12:17:32;;;;;;;1.97;1.20;;;13.60;99.90;;;;;;5063731;28;20280;-44
2022/11/06 12:20:02;;;;;;;3.53;1.20;;;13.60;99.90;;;;;;5079665;28;20191;-44
2022/11/06 12:22:35;;;;;;;1.83;1.20;;;13.60;99.90;;;;;;5070613;28;20201;-44
2022/11/06 12:25:10;;;;;;;2.63;1.00;;;13.60;99.90;;;;;;5072366;28;20236;-44
2022/11/06 12:27:41;;;;;;;3.03;1.17;;;13.60;99.90;;;;;;5078962;28;20202;-44
2022/11/06 12:30:12;;;;;;;1.90;1.23;;;13.50;99.90;;;;;;5078537;28;20205;-46
2022/11/06 12:32:56;;;;;;;1.80;0.97;;;13.50;99.90;;;;;;5069687;28;20317;-45
2022/11/06 12:35:27;;;;;;;1.57;0.70;;;13.50;99.90;;;;;;5078890;28;20229;-45
2022/11/06 12:38:02;;;;;;;1.40;1.07;;;13.40;99.90;;;;;;5076573;28;20205;-44
2022/11/06 12:40:32;;;;;;;2.33;1.20;;;13.40;99.90;;;;;;5076006;28;20918;-44
2022/11/06 12:43:10;;;;;;;2.43;1.13;;;13.40;99.90;;;;;;5075614;28;20703;-46
2022/11/06 12:45:51;;;;;;;2.90;1.20;;;13.40;99.90;;;;;;5072408;28;20200;-44
2022/11/06 12:48:33;;;;;;;1.23;0.80;;;13.40;99.90;;;;;;5070908;28;20197;-47
2022/11/06 12:51:06;;;;;;;1.60;1.10;;;13.30;99.90;;;;;;5070846;28;20210;-44
2022/11/06 12:53:48;;;;;;;1.73;0.90;;;13.30;99.90;;;;;;5072302;28;20691;-45
2022/11/06 12:56:22;;;;;;;1.53;1.10;;;13.30;99.90;;;;;;5077983;28;20200;-45
2022/11/06 12:59:10;;;;;;;1.60;1.00;;;13.40;99.90;;;;;;5079297;28;20252;-47
2022/11/06 13:01:45;;;;;;;3.13;1.00;;;13.40;99.90;;;;;;5075124;28;20218;-47
2022/11/06 13:04:41;;;;;;;1.70;1.03;;;13.40;99.90;;;;;;5069672;28;20922;-44
2022/11/06 13:07:39;;;;;;;3.03;1.03;;;13.30;99.90;;;;;;5084924;28;20225;-45
2022/11/06 13:10:21;;;;;;;2.43;1.00;;;13.30;99.90;;;;;;5076401;28;20204;-45
2022/11/06 13:13:00;;;;;;;4.33;1.60;;;13.30;99.90;;;;;;5081635;28;20236;-47
2022/11/06 13:15:32;;;;;;;5.33;1.73;;;13.30;99.90;;;;;;5078809;28;20213;-44
2022/11/06 13:18:06;;;;;;;1.20;1.03;;;13.40;99.90;;;;;;5074687;28;20195;-46
2022/11/06 13:20:39;;;;;;;2.43;1.73;;;13.40;99.90;;;;;;5069236;28;20761;-48
2022/11/06 13:23:16;;;;;;;3.30;1.40;;;13.40;99.90;;;;;;5076705;28;20226;-44
2022/11/06 13:25:48;;;;;;;2.70;1.50;;;13.40;99.90;;;;;;5082202;28;20194;-46